N967AR KISM-KLAL
Flight info
| Callsign | N967AR |
|---|---|
| Flight time | 0h 25m |
| Altitude | 2500 |
| Route | KISM LK PARKER KLAL |
| Aircraft | P28A/L-DGVW/C |
Departure
| Time | 2026-04-26 20:38 |
|---|---|
| Airport | Kissimmee Gateway Airport (KISM) |
Arrival
| Time | 2026-04-26 21:03 |
|---|---|
| Airport | Lakeland Linder International Airport (KLAL) |
| Time | Latitude | Longitude | Altitude | Speed | Heading |
|---|---|---|---|---|---|
| 2026-04-26 20:21 | 28.28813 | -81.43404 | 79 ft | 0 kts | 283° |
| 2026-04-26 20:34 | 28.28818 | -81.43423 | 79 ft | 5 kts | 276° |
| 2026-04-26 20:35 | 28.28790 | -81.43451 | 80 ft | 5 kts | 162° |
| 2026-04-26 20:35 | 28.28723 | -81.43407 | 80 ft | 14 kts | 149° |
| 2026-04-26 20:35 | 28.28621 | -81.43335 | 80 ft | 19 kts | 149° |
| 2026-04-26 20:35 | 28.28497 | -81.43248 | 79 ft | 20 kts | 149° |
| 2026-04-26 20:36 | 28.28374 | -81.43161 | 78 ft | 20 kts | 146° |
| 2026-04-26 20:36 | 28.28305 | -81.43125 | 77 ft | 0 kts | 185° |
| 2026-04-26 20:36 | 28.28304 | -81.43125 | 77 ft | 0 kts | 185° |
| 2026-04-26 20:37 | 28.28279 | -81.43130 | 77 ft | 12 kts | 196° |
| 2026-04-26 20:37 | 28.28268 | -81.43218 | 78 ft | 16 kts | 326° |
| 2026-04-26 20:37 | 28.28468 | -81.43361 | 79 ft | 58 kts | 334° |
| 2026-04-26 20:37 | 28.28912 | -81.43647 | 171 ft | 80 kts | 327° |
| 2026-04-26 20:38 | 28.29377 | -81.43938 | 399 ft | 78 kts | 330° |
| 2026-04-26 20:38 | 28.29768 | -81.44199 | 698 ft | 59 kts | 319° |
| 2026-04-26 20:38 | 28.29800 | -81.44599 | 740 ft | 74 kts | 191° |
| 2026-04-26 20:38 | 28.29343 | -81.44565 | 931 ft | 71 kts | 210° |
| 2026-04-26 20:39 | 28.29221 | -81.45101 | 1040 ft | 83 kts | 272° |
| 2026-04-26 20:39 | 28.29191 | -81.45615 | 1413 ft | 55 kts | 242° |
| 2026-04-26 20:39 | 28.29175 | -81.46040 | 1566 ft | 54 kts | 283° |
| 2026-04-26 20:39 | 28.29367 | -81.46545 | 1585 ft | 67 kts | 283° |
| 2026-04-26 20:40 | 28.29381 | -81.47084 | 1691 ft | 65 kts | 250° |
| 2026-04-26 20:40 | 28.29261 | -81.47671 | 1625 ft | 89 kts | 274° |
| 2026-04-26 20:40 | 28.29599 | -81.48354 | 1522 ft | 111 kts | 313° |
| 2026-04-26 20:40 | 28.30252 | -81.48862 | 1494 ft | 117 kts | 328° |
| 2026-04-26 20:41 | 28.30971 | -81.49339 | 1486 ft | 117 kts | 319° |
| 2026-04-26 20:41 | 28.31402 | -81.50073 | 1483 ft | 113 kts | 284° |
| 2026-04-26 20:41 | 28.31414 | -81.50950 | 1484 ft | 111 kts | 258° |
| 2026-04-26 20:41 | 28.31196 | -81.51784 | 1486 ft | 111 kts | 251° |
| 2026-04-26 20:42 | 28.30763 | -81.52509 | 1488 ft | 111 kts | 230° |
| 2026-04-26 20:42 | 28.30237 | -81.53148 | 1487 ft | 112 kts | 229° |
| 2026-04-26 20:42 | 28.29704 | -81.53792 | 1487 ft | 112 kts | 229° |
| 2026-04-26 20:42 | 28.29144 | -81.54411 | 1487 ft | 112 kts | 222° |
| 2026-04-26 20:43 | 28.28540 | -81.54981 | 1487 ft | 112 kts | 221° |
| 2026-04-26 20:43 | 28.27939 | -81.55547 | 1487 ft | 112 kts | 222° |
| 2026-04-26 20:43 | 28.27364 | -81.56152 | 1487 ft | 113 kts | 225° |
| 2026-04-26 20:43 | 28.26790 | -81.56769 | 1483 ft | 113 kts | 225° |
| 2026-04-26 20:44 | 28.26205 | -81.57398 | 1434 ft | 117 kts | 225° |
| 2026-04-26 20:44 | 28.25619 | -81.58041 | 1385 ft | 118 kts | 228° |
| 2026-04-26 20:44 | 28.25115 | -81.58784 | 1335 ft | 119 kts | 239° |
| 2026-04-26 20:44 | 28.24724 | -81.59628 | 1284 ft | 120 kts | 245° |
| 2026-04-26 20:45 | 28.24402 | -81.60505 | 1234 ft | 121 kts | 249° |
| 2026-04-26 20:45 | 28.24116 | -81.61402 | 1185 ft | 121 kts | 251° |
| 2026-04-26 20:45 | 28.23859 | -81.62284 | 1136 ft | 121 kts | 252° |
| 2026-04-26 20:45 | 28.23609 | -81.63179 | 1087 ft | 121 kts | 252° |
| 2026-04-26 20:46 | 28.23361 | -81.64089 | 1037 ft | 121 kts | 253° |
| 2026-04-26 20:46 | 28.23109 | -81.65009 | 985 ft | 121 kts | 249° |
| 2026-04-26 20:46 | 28.22767 | -81.65886 | 936 ft | 122 kts | 244° |
| 2026-04-26 20:46 | 28.22414 | -81.66750 | 911 ft | 118 kts | 244° |
| 2026-04-26 20:47 | 28.22080 | -81.67567 | 969 ft | 110 kts | 244° |
| 2026-04-26 20:47 | 28.21872 | -81.68076 | 1028 ft | 105 kts | 244° |
| 2026-04-26 20:47 | 28.21475 | -81.69042 | 1151 ft | 98 kts | 244° |
| 2026-04-26 20:47 | 28.21197 | -81.69721 | 1244 ft | 94 kts | 244° |
| 2026-04-26 20:48 | 28.20926 | -81.70380 | 1338 ft | 91 kts | 244° |
| 2026-04-26 20:48 | 28.20660 | -81.71029 | 1434 ft | 89 kts | 244° |
| 2026-04-26 20:48 | 28.20396 | -81.71677 | 1466 ft | 93 kts | 244° |
| 2026-04-26 20:48 | 28.20104 | -81.72395 | 1360 ft | 108 kts | 245° |
| 2026-04-26 20:49 | 28.19776 | -81.73212 | 1222 ft | 118 kts | 245° |
| 2026-04-26 20:49 | 28.19436 | -81.74053 | 1223 ft | 112 kts | 245° |
| 2026-04-26 20:49 | 28.19119 | -81.74834 | 1227 ft | 108 kts | 244° |
| 2026-04-26 20:49 | 28.18806 | -81.75601 | 1228 ft | 106 kts | 244° |
| 2026-04-26 20:50 | 28.18500 | -81.76350 | 1229 ft | 105 kts | 244° |
| 2026-04-26 20:50 | 28.18194 | -81.77100 | 1230 ft | 104 kts | 244° |
| 2026-04-26 20:50 | 28.17889 | -81.77846 | 1229 ft | 104 kts | 244° |
| 2026-04-26 20:50 | 28.17585 | -81.78591 | 1229 ft | 104 kts | 244° |
| 2026-04-26 20:51 | 28.17283 | -81.79330 | 1229 ft | 104 kts | 244° |
| 2026-04-26 20:51 | 28.16978 | -81.80077 | 1230 ft | 104 kts | 244° |
| 2026-04-26 20:51 | 28.16656 | -81.80817 | 1229 ft | 103 kts | 237° |
| 2026-04-26 20:51 | 28.16214 | -81.81458 | 1229 ft | 103 kts | 231° |
| 2026-04-26 20:52 | 28.15754 | -81.82091 | 1230 ft | 104 kts | 231° |
| 2026-04-26 20:52 | 28.15300 | -81.82729 | 1228 ft | 104 kts | 223° |
| 2026-04-26 20:52 | 28.14626 | -81.83034 | 1231 ft | 105 kts | 192° |
| 2026-04-26 20:52 | 28.13897 | -81.83137 | 1230 ft | 106 kts | 187° |
| 2026-04-26 20:53 | 28.13148 | -81.83199 | 1230 ft | 106 kts | 188° |
| 2026-04-26 20:53 | 28.12517 | -81.83565 | 1229 ft | 103 kts | 228° |
| 2026-04-26 20:53 | 28.12142 | -81.84260 | 1230 ft | 103 kts | 246° |
| 2026-04-26 20:53 | 28.11867 | -81.85017 | 1229 ft | 103 kts | 244° |
| 2026-04-26 20:54 | 28.11507 | -81.85727 | 1229 ft | 103 kts | 237° |
| 2026-04-26 20:54 | 28.11131 | -81.86425 | 1228 ft | 103 kts | 240° |
| 2026-04-26 20:54 | 28.10772 | -81.87142 | 1228 ft | 103 kts | 240° |
| 2026-04-26 20:54 | 28.10440 | -81.87871 | 1229 ft | 103 kts | 243° |
| 2026-04-26 20:55 | 28.10138 | -81.88603 | 1229 ft | 104 kts | 245° |
| 2026-04-26 20:55 | 28.09833 | -81.89358 | 1228 ft | 104 kts | 245° |
| 2026-04-26 20:55 | 28.09534 | -81.90093 | 1226 ft | 102 kts | 245° |
| 2026-04-26 20:55 | 28.09238 | -81.90815 | 1225 ft | 98 kts | 245° |
| 2026-04-26 20:56 | 28.08954 | -81.91505 | 1228 ft | 96 kts | 245° |
| 2026-04-26 20:56 | 28.08707 | -81.92203 | 1226 ft | 94 kts | 253° |
| 2026-04-26 20:56 | 28.08718 | -81.92941 | 1229 ft | 93 kts | 272° |
| 2026-04-26 20:56 | 28.08582 | -81.93636 | 1231 ft | 91 kts | 249° |
| 2026-04-26 20:57 | 28.08410 | -81.94326 | 1228 ft | 92 kts | 261° |
| 2026-04-26 20:57 | 28.08407 | -81.95060 | 1230 ft | 92 kts | 271° |
| 2026-04-26 20:57 | 28.08454 | -81.95782 | 1217 ft | 93 kts | 273° |
| 2026-04-26 20:57 | 28.08430 | -81.96513 | 1232 ft | 91 kts | 258° |
| 2026-04-26 20:58 | 28.08253 | -81.97192 | 1272 ft | 90 kts | 245° |
| 2026-04-26 20:58 | 28.07933 | -81.97815 | 1284 ft | 94 kts | 236° |
| 2026-04-26 20:58 | 28.07534 | -81.98434 | 1299 ft | 98 kts | 233° |
| 2026-04-26 20:58 | 28.07105 | -81.99036 | 1331 ft | 99 kts | 231° |
| 2026-04-26 20:59 | 28.06645 | -81.99672 | 1268 ft | 106 kts | 233° |
| 2026-04-26 20:59 | 28.06205 | -82.00337 | 1257 ft | 102 kts | 232° |
| 2026-04-26 20:59 | 28.05768 | -82.00962 | 1218 ft | 101 kts | 232° |
| 2026-04-26 20:59 | 28.05348 | -82.01602 | 1158 ft | 101 kts | 236° |
| 2026-04-26 21:00 | 28.04911 | -82.02242 | 1105 ft | 103 kts | 230° |
| 2026-04-26 21:00 | 28.04312 | -82.02605 | 1181 ft | 98 kts | 182° |
| 2026-04-26 21:00 | 28.03657 | -82.02367 | 1207 ft | 101 kts | 162° |
| 2026-04-26 21:00 | 28.02968 | -82.02091 | 1194 ft | 105 kts | 166° |
| 2026-04-26 21:01 | 28.02282 | -82.01819 | 1197 ft | 102 kts | 166° |
| 2026-04-26 21:01 | 28.01603 | -82.01614 | 1128 ft | 101 kts | 175° |
| 2026-04-26 21:01 | 28.00923 | -82.01559 | 1005 ft | 96 kts | 182° |
| 2026-04-26 21:01 | 28.00282 | -82.01407 | 857 ft | 96 kts | 150° |
| 2026-04-26 21:02 | 27.99795 | -82.00874 | 739 ft | 92 kts | 121° |
| 2026-04-26 21:02 | 27.99717 | -82.00225 | 689 ft | 84 kts | 85° |
| 2026-04-26 21:02 | 27.99453 | -81.99831 | 594 ft | 76 kts | 204° |
| 2026-04-26 21:02 | 27.99118 | -82.00306 | 493 ft | 79 kts | 254° |
| 2026-04-26 21:03 | 27.99068 | -82.00888 | 379 ft | 74 kts | 266° |
| 2026-04-26 21:03 | 27.99051 | -82.01455 | 265 ft | 73 kts | 266° |
| 2026-04-26 21:03 | 27.99039 | -82.02024 | 153 ft | 69 kts | 269° |
| 2026-04-26 21:03 | 27.99041 | -82.02480 | 128 ft | 44 kts | 305° |
| 2026-04-26 21:04 | 27.99036 | -82.02646 | 127 ft | 16 kts | 269° |
| 2026-04-26 21:04 | 27.99035 | -82.02883 | 127 ft | 35 kts | 270° |
| 2026-04-26 21:04 | 27.99029 | -82.03134 | 128 ft | 30 kts | 276° |
| 2026-04-26 21:04 | 27.99026 | -82.03318 | 129 ft | 15 kts | 261° |
| 2026-04-26 21:05 | 27.99013 | -82.03346 | 129 ft | 0 kts | 192° |
| 2026-04-26 21:05 | 27.99012 | -82.03346 | 129 ft | 2 kts | 189° |
| 2026-04-26 21:05 | 27.99010 | -82.03346 | 129 ft | 0 kts | 180° |
| 2026-04-26 21:06 | 27.99009 | -82.03346 | 129 ft | 2 kts | 179° |
| 2026-04-26 21:06 | 27.98888 | -82.03343 | 129 ft | 21 kts | 182° |
| 2026-04-26 21:06 | 27.98820 | -82.03371 | 128 ft | 0 kts | 250° |
| 2026-04-26 21:06 | 27.98835 | -82.03400 | 128 ft | 9 kts | 270° |
| 2026-04-26 21:07 | 27.98827 | -82.03480 | 128 ft | 8 kts | 238° |
| 2026-04-26 21:07 | 27.98825 | -82.03484 | 128 ft | 0 kts | 236° |